sensor_id;sensor_type;location;lat;lon;timestamp;pressure;altitude;pressure_sealevel;temperature;humidity
6208;BME280;3137;51.550;7.060;2023-02-22T00:00:41;101164.41;;;6.49;86.79
6208;BME280;3137;51.550;7.060;2023-02-22T00:03:14;101163.34;;;6.34;86.50
6208;BME280;3137;51.550;7.060;2023-02-22T00:05:42;101161.56;;;6.34;86.78
6208;BME280;3137;51.550;7.060;2023-02-22T00:08:14;101172.56;;;6.27;86.44
6208;BME280;3137;51.550;7.060;2023-02-22T00:10:40;101162.28;;;6.19;86.47
6208;BME280;3137;51.550;7.060;2023-02-22T00:13:08;101152.81;;;6.13;86.58
6208;BME280;3137;51.550;7.060;2023-02-22T00:15:35;101154.88;;;6.07;86.63
6208;BME280;3137;51.550;7.060;2023-02-22T00:18:03;101140.53;;;5.90;86.96
6208;BME280;3137;51.550;7.060;2023-02-22T00:20:30;101141.69;;;5.85;86.77
6208;BME280;3137;51.550;7.060;2023-02-22T00:22:56;101138.44;;;5.78;87.07
6208;BME280;3137;51.550;7.060;2023-02-22T00:25:23;101131.59;;;5.72;87.11
6208;BME280;3137;51.550;7.060;2023-02-22T00:27:50;101136.19;;;5.69;87.18
6208;BME280;3137;51.550;7.060;2023-02-22T00:30:25;101139.13;;;5.63;87.36
6208;BME280;3137;51.550;7.060;2023-02-22T00:32:54;101138.44;;;5.58;87.65
6208;BME280;3137;51.550;7.060;2023-02-22T00:35:24;101146.69;;;5.51;87.63
6208;BME280;3137;51.550;7.060;2023-02-22T00:37:54;101146.09;;;5.45;87.51
6208;BME280;3137;51.550;7.060;2023-02-22T00:40:23;101149.00;;;5.39;87.71
6208;BME280;3137;51.550;7.060;2023-02-22T00:42:50;101139.59;;;5.31;87.48
6208;BME280;3137;51.550;7.060;2023-02-22T00:45:22;101146.88;;;5.26;87.57
6208;BME280;3137;51.550;7.060;2023-02-22T00:47:49;101140.06;;;5.21;87.45
6208;BME280;3137;51.550;7.060;2023-02-22T00:50:17;101133.09;;;5.18;87.58
6208;BME280;3137;51.550;7.060;2023-02-22T00:52:44;101139.53;;;5.13;87.72
6208;BME280;3137;51.550;7.060;2023-02-22T00:55:23;101136.19;;;5.07;88.41
6208;BME280;3137;51.550;7.060;2023-02-22T00:57:50;101128.56;;;5.00;88.72
6208;BME280;3137;51.550;7.060;2023-02-22T01:00:22;101133.06;;;4.98;89.14
6208;BME280;3137;51.550;7.060;2023-02-22T01:02:50;101127.84;;;4.96;88.99
6208;BME280;3137;51.550;7.060;2023-02-22T01:05:22;101125.38;;;4.92;88.85
6208;BME280;3137;51.550;7.060;2023-02-22T01:07:52;101131.88;;;4.84;88.75
6208;BME280;3137;51.550;7.060;2023-02-22T01:10:22;101120.88;;;4.72;89.18
6208;BME280;3137;51.550;7.060;2023-02-22T01:12:50;101124.84;;;4.61;89.14
6208;BME280;3137;51.550;7.060;2023-02-22T01:15:19;101108.03;;;4.62;89.26
6208;BME280;3137;51.550;7.060;2023-02-22T01:17:51;101122.31;;;4.58;90.19
6208;BME280;3137;51.550;7.060;2023-02-22T01:20:20;101116.16;;;4.58;89.76
6208;BME280;3137;51.550;7.060;2023-02-22T01:22:49;101112.38;;;4.63;89.75
6208;BME280;3137;51.550;7.060;2023-02-22T01:25:20;101111.44;;;4.64;90.15
6208;BME280;3137;51.550;7.060;2023-02-22T01:27:47;101109.53;;;4.68;90.35
6208;BME280;3137;51.550;7.060;2023-02-22T01:30:20;101110.16;;;4.75;90.45
6208;BME280;3137;51.550;7.060;2023-02-22T01:32:47;101111.53;;;4.83;90.77
6208;BME280;3137;51.550;7.060;2023-02-22T01:35:15;101112.09;;;4.92;90.34
6208;BME280;3137;51.550;7.060;2023-02-22T01:37:43;101097.78;;;4.96;90.65
6208;BME280;3137;51.550;7.060;2023-02-22T01:40:16;101096.72;;;5.00;90.87
6208;BME280;3137;51.550;7.060;2023-02-22T01:42:53;101092.88;;;5.07;91.24
6208;BME280;3137;51.550;7.060;2023-02-22T01:48:59;101096.78;;;5.19;91.30
6208;BME280;3137;51.550;7.060;2023-02-22T01:51:01;101087.75;;;5.23;91.59
6208;BME280;3137;51.550;7.060;2023-02-22T01:53:34;101086.63;;;5.28;91.70
6208;BME280;3137;51.550;7.060;2023-02-22T01:56:02;101089.28;;;5.28;91.84
6208;BME280;3137;51.550;7.060;2023-02-22T01:58:31;101082.16;;;5.29;91.80
6208;BME280;3137;51.550;7.060;2023-02-22T02:00:58;101084.72;;;5.32;92.08
6208;BME280;3137;51.550;7.060;2023-02-22T02:03:30;101084.81;;;5.29;92.25
6208;BME280;3137;51.550;7.060;2023-02-22T02:06:00;101089.22;;;5.30;92.62
6208;BME280;3137;51.550;7.060;2023-02-22T02:08:36;101086.38;;;5.35;92.29
6208;BME280;3137;51.550;7.060;2023-02-22T02:11:06;101089.72;;;5.38;92.28
6208;BME280;3137;51.550;7.060;2023-02-22T02:13:34;101084.38;;;5.40;92.15
6208;BME280;3137;51.550;7.060;2023-02-22T02:16:01;101079.91;;;5.40;92.29
6208;BME280;3137;51.550;7.060;2023-02-22T02:18:28;101069.28;;;5.40;92.42
6208;BME280;3137;51.550;7.060;2023-02-22T02:26:57;101060.16;;;5.46;92.56
6208;BME280;3137;51.550;7.060;2023-02-22T02:29:39;101052.06;;;5.49;92.72
6208;BME280;3137;51.550;7.060;2023-02-22T02:36:16;101038.41;;;5.38;92.92
6208;BME280;3137;51.550;7.060;2023-02-22T02:38:46;101037.75;;;5.32;93.51
6208;BME280;3137;51.550;7.060;2023-02-22T02:41:46;101044.56;;;5.38;93.67
6208;BME280;3137;51.550;7.060;2023-02-22T02:44:38;101039.16;;;5.41;93.97
6208;BME280;3137;51.550;7.060;2023-02-22T02:47:18;101034.09;;;5.35;94.10
6208;BME280;3137;51.550;7.060;2023-02-22T02:49:52;101031.31;;;5.38;93.80
6208;BME280;3137;51.550;7.060;2023-02-22T02:52:22;101034.03;;;5.37;94.10
6208;BME280;3137;51.550;7.060;2023-02-22T02:54:51;101031.19;;;5.41;93.98
6208;BME280;3137;51.550;7.060;2023-02-22T02:57:17;101030.25;;;5.42;94.04
6208;BME280;3137;51.550;7.060;2023-02-22T02:59:44;101031.09;;;5.43;94.21
6208;BME280;3137;51.550;7.060;2023-02-22T03:07:58;101019.88;;;5.36;94.91
6208;BME280;3137;51.550;7.060;2023-02-22T03:13:16;101012.84;;;5.35;95.08
6208;BME280;3137;51.550;7.060;2023-02-22T03:16:14;101007.59;;;5.33;95.18
6208;BME280;3137;51.550;7.060;2023-02-22T03:18:53;101004.75;;;5.38;95.09
6208;BME280;3137;51.550;7.060;2023-02-22T03:21:29;100992.47;;;5.36;95.00
6208;BME280;3137;51.550;7.060;2023-02-22T03:24:06;100985.44;;;5.35;95.20
6208;BME280;3137;51.550;7.060;2023-02-22T03:26:41;100989.81;;;5.36;95.43
6208;BME280;3137;51.550;7.060;2023-02-22T03:29:10;100983.66;;;5.35;95.41
6208;BME280;3137;51.550;7.060;2023-02-22T03:31:40;100992.78;;;5.29;95.57
6208;BME280;3137;51.550;7.060;2023-02-22T03:34:15;100983.72;;;5.33;95.78
6208;BME280;3137;51.550;7.060;2023-02-22T03:36:47;100980.84;;;5.38;95.90
6208;BME280;3137;51.550;7.060;2023-02-22T03:39:17;100978.97;;;5.40;95.73
6208;BME280;3137;51.550;7.060;2023-02-22T03:41:47;100991.34;;;5.41;95.91
6208;BME280;3137;51.550;7.060;2023-02-22T03:44:22;100982.44;;;5.42;95.65
6208;BME280;3137;51.550;7.060;2023-02-22T03:46:53;100977.06;;;5.44;95.82
6208;BME280;3137;51.550;7.060;2023-02-22T03:49:28;100976.25;;;5.42;95.74
6208;BME280;3137;51.550;7.060;2023-02-22T03:51:59;100984.03;;;5.46;95.71
6208;BME280;3137;51.550;7.060;2023-02-22T03:54:27;100975.03;;;5.49;95.45
6208;BME280;3137;51.550;7.060;2023-02-22T03:56:58;100977.56;;;5.52;95.31
6208;BME280;3137;51.550;7.060;2023-02-22T03:59:27;100969.38;;;5.57;95.67
6208;BME280;3137;51.550;7.060;2023-02-22T04:01:55;100969.53;;;5.53;95.57
6208;BME280;3137;51.550;7.060;2023-02-22T04:04:23;100980.16;;;5.53;95.57
6208;BME280;3137;51.550;7.060;2023-02-22T04:06:51;100982.28;;;5.45;95.71
6208;BME280;3137;51.550;7.060;2023-02-22T04:09:18;100979.50;;;5.48;95.66
6208;BME280;3137;51.550;7.060;2023-02-22T04:11:44;100975.03;;;5.49;95.80
6208;BME280;3137;51.550;7.060;2023-02-22T04:14:11;100981.06;;;5.52;95.68
6208;BME280;3137;51.550;7.060;2023-02-22T04:16:38;100986.47;;;5.51;95.50
6208;BME280;3137;51.550;7.060;2023-02-22T04:19:07;100983.72;;;5.52;95.51
6208;BME280;3137;51.550;7.060;2023-02-22T04:21:36;100980.72;;;5.41;95.45
6208;BME280;3137;51.550;7.060;2023-02-22T04:24:03;100986.31;;;5.35;95.49
6208;BME280;3137;51.550;7.060;2023-02-22T04:26:30;100991.34;;;5.41;95.33
6208;BME280;3137;51.550;7.060;2023-02-22T04:28:59;100984.44;;;5.37;95.46
6208;BME280;3137;51.550;7.060;2023-02-22T04:31:32;100988.59;;;5.43;95.70
6208;BME280;3137;51.550;7.060;2023-02-22T04:34:00;100988.59;;;5.43;95.58
6208;BME280;3137;51.550;7.060;2023-02-22T04:36:30;100980.63;;;5.43;95.22
6208;BME280;3137;51.550;7.060;2023-02-22T04:38:58;100976.97;;;5.45;95.39
6208;BME280;3137;51.550;7.060;2023-02-22T04:41:27;100981.28;;;5.48;95.34
6208;BME280;3137;51.550;7.060;2023-02-22T04:43:53;100983.13;;;5.46;95.47
6208;BME280;3137;51.550;7.060;2023-02-22T04:46:22;100976.06;;;5.46;95.32
6208;BME280;3137;51.550;7.060;2023-02-22T04:48:50;100979.56;;;5.47;95.51
6208;BME280;3137;51.550;7.060;2023-02-22T04:51:19;100975.09;;;5.47;95.68
6208;BME280;3137;51.550;7.060;2023-02-22T04:53:55;100973.88;;;5.54;95.36
6208;BME280;3137;51.550;7.060;2023-02-22T04:56:21;100969.31;;;5.58;95.17
6208;BME280;3137;51.550;7.060;2023-02-22T04:58:47;100971.28;;;5.53;95.24
6208;BME280;3137;51.550;7.060;2023-02-22T05:01:14;100969.44;;;5.55;95.15
6208;BME280;3137;51.550;7.060;2023-02-22T05:03:42;100962.34;;;5.56;95.18
6208;BME280;3137;51.550;7.060;2023-02-22T05:06:09;100969.66;;;5.50;94.97
6208;BME280;3137;51.550;7.060;2023-02-22T05:08:37;100963.63;;;5.47;94.98
6208;BME280;3137;51.550;7.060;2023-02-22T05:11:04;100963.56;;;5.48;94.82
6208;BME280;3137;51.550;7.060;2023-02-22T05:13:30;100958.38;;;5.45;95.14
6208;BME280;3137;51.550;7.060;2023-02-22T05:15:57;100950.72;;;5.39;95.14
6208;BME280;3137;51.550;7.060;2023-02-22T05:18:23;100948.13;;;5.38;94.91
6208;BME280;3137;51.550;7.060;2023-02-22T05:20:50;100948.28;;;5.35;95.28
6208;BME280;3137;51.550;7.060;2023-02-22T05:23:16;100944.88;;;5.31;95.25
6208;BME280;3137;51.550;7.060;2023-02-22T05:25:42;100940.34;;;5.14;95.17
6208;BME280;3137;51.550;7.060;2023-02-22T05:28:11;100938.34;;;5.19;95.25
6208;BME280;3137;51.550;7.060;2023-02-22T05:30:38;100936.78;;;5.15;94.99
6208;BME280;3137;51.550;7.060;2023-02-22T05:33:06;100936.84;;;5.14;95.03
6208;BME280;3137;51.550;7.060;2023-02-22T05:35:32;100940.44;;;5.13;95.07
6208;BME280;3137;51.550;7.060;2023-02-22T05:37:59;100935.25;;;5.09;94.81
6208;BME280;3137;51.550;7.060;2023-02-22T05:40:28;100937.56;;;4.98;95.07
6208;BME280;3137;51.550;7.060;2023-02-22T05:42:55;100937.47;;;5.00;94.74
6208;BME280;3137;51.550;7.060;2023-02-22T05:45:24;100938.41;;;4.99;95.07
6208;BME280;3137;51.550;7.060;2023-02-22T05:47:51;100935.97;;;4.94;94.90
6208;BME280;3137;51.550;7.060;2023-02-22T05:50:19;100934.09;;;4.96;95.03
6208;BME280;3137;51.550;7.060;2023-02-22T05:52:47;100930.66;;;4.94;95.01
6208;BME280;3137;51.550;7.060;2023-02-22T05:55:16;100930.72;;;4.93;94.72
6208;BME280;3137;51.550;7.060;2023-02-22T05:57:43;100922.94;;;4.88;94.89
6208;BME280;3137;51.550;7.060;2023-02-22T06:00:13;100928.25;;;4.88;94.85
6208;BME280;3137;51.550;7.060;2023-02-22T06:02:41;100924.69;;;4.89;94.88
6208;BME280;3137;51.550;7.060;2023-02-22T06:05:08;100928.19;;;4.89;94.53
6208;BME280;3137;51.550;7.060;2023-02-22T06:07:34;100924.75;;;4.87;94.96
6208;BME280;3137;51.550;7.060;2023-02-22T06:10:00;100924.75;;;4.87;94.68
6208;BME280;3137;51.550;7.060;2023-02-22T06:12:27;100923.84;;;4.88;94.92
6208;BME280;3137;51.550;7.060;2023-02-22T06:14:53;100925.59;;;4.88;94.93
6208;BME280;3137;51.550;7.060;2023-02-22T06:17:20;100922.03;;;4.89;94.47
6208;BME280;3137;51.550;7.060;2023-02-22T06:19:46;100921.09;;;4.90;94.52
6208;BME280;3137;51.550;7.060;2023-02-22T06:22:17;100922.09;;;4.87;94.59
6208;BME280;3137;51.550;7.060;2023-02-22T06:24:44;100922.94;;;4.88;94.45
6208;BME280;3137;51.550;7.060;2023-02-22T06:27:10;100922.94;;;4.88;94.39
6208;BME280;3137;51.550;7.060;2023-02-22T06:29:37;100921.25;;;4.87;94.61
6208;BME280;3137;51.550;7.060;2023-02-22T06:32:03;100913.22;;;4.88;94.81
6208;BME280;3137;51.550;7.060;2023-02-22T06:34:30;100921.09;;;4.90;94.65
6208;BME280;3137;51.550;7.060;2023-02-22T06:36:56;100922.31;;;4.83;94.61
6208;BME280;3137;51.550;7.060;2023-02-22T06:39:25;100916.69;;;4.70;94.95
6208;BME280;3137;51.550;7.060;2023-02-22T06:41:51;100926.09;;;4.77;94.77
6208;BME280;3137;51.550;7.060;2023-02-22T06:44:20;100926.00;;;4.79;94.86
6208;BME280;3137;51.550;7.060;2023-02-22T06:46:48;100924.97;;;4.83;94.93
6208;BME280;3137;51.550;7.060;2023-02-22T06:49:19;100929.34;;;4.84;94.66
6208;BME280;3137;51.550;7.060;2023-02-22T06:51:46;100928.34;;;4.86;94.72
6208;BME280;3137;51.550;7.060;2023-02-22T06:54:13;100924.81;;;4.86;94.86
6208;BME280;3137;51.550;7.060;2023-02-22T06:56:39;100919.59;;;4.84;95.06
6208;BME280;3137;51.550;7.060;2023-02-22T06:59:06;100923.34;;;4.79;95.34
6208;BME280;3137;51.550;7.060;2023-02-22T07:01:33;100918.72;;;4.84;95.37
6208;BME280;3137;51.550;7.060;2023-02-22T07:04:00;100914.19;;;4.86;95.03
6208;BME280;3137;51.550;7.060;2023-02-22T07:06:26;100916.78;;;4.87;94.76
6208;BME280;3137;51.550;7.060;2023-02-22T07:08:52;100915.13;;;4.85;95.05
6208;BME280;3137;51.550;7.060;2023-02-22T07:11:19;100918.06;;;4.79;95.10
6208;BME280;3137;51.550;7.060;2023-02-22T07:13:46;100917.53;;;4.71;95.53
6208;BME280;3137;51.550;7.060;2023-02-22T07:16:12;100915.25;;;4.63;95.50
6208;BME280;3137;51.550;7.060;2023-02-22T07:18:39;100909.41;;;4.55;96.02
6208;BME280;3137;51.550;7.060;2023-02-22T07:21:05;100915.59;;;4.55;96.38
6208;BME280;3137;51.550;7.060;2023-02-22T07:23:32;100908.41;;;4.57;95.99
6208;BME280;3137;51.550;7.060;2023-02-22T07:25:59;100910.28;;;4.55;96.36
6208;BME280;3137;51.550;7.060;2023-02-22T07:28:26;100911.84;;;4.59;96.25
6208;BME280;3137;51.550;7.060;2023-02-22T07:30:52;100913.25;;;4.68;96.23
6208;BME280;3137;51.550;7.060;2023-02-22T07:33:19;100908.72;;;4.70;96.36
6208;BME280;3137;51.550;7.060;2023-02-22T07:35:47;100913.91;;;4.73;96.60
6208;BME280;3137;51.550;7.060;2023-02-22T07:38:16;100917.00;;;4.83;96.43
6208;BME280;3137;51.550;7.060;2023-02-22T07:40:43;100920.50;;;4.83;96.63
6208;BME280;3137;51.550;7.060;2023-02-22T07:45:46;100916.09;;;4.84;96.09
6208;BME280;3137;51.550;7.060;2023-02-22T07:48:13;100914.56;;;4.97;96.35
6208;BME280;3137;51.550;7.060;2023-02-22T07:50:43;100914.56;;;4.97;96.03
6208;BME280;3137;51.550;7.060;2023-02-22T07:53:16;100914.94;;;4.89;95.54
6208;BME280;3137;51.550;7.060;2023-02-22T07:55:43;100906.31;;;4.84;96.00
6208;BME280;3137;51.550;7.060;2023-02-22T07:58:13;100904.75;;;4.99;95.86
6208;BME280;3137;51.550;7.060;2023-02-22T08:00:41;100897.53;;;5.03;95.67
6208;BME280;3137;51.550;7.060;2023-02-22T08:03:11;100901.09;;;5.02;95.85
6208;BME280;3137;51.550;7.060;2023-02-22T08:05:40;100900.03;;;5.06;95.88
6208;BME280;3137;51.550;7.060;2023-02-22T08:08:07;100895.44;;;5.09;95.64
6208;BME280;3137;51.550;7.060;2023-02-22T08:10:34;100894.63;;;5.07;95.79
6208;BME280;3137;51.550;7.060;2023-02-22T08:13:01;100881.03;;;4.96;96.05
6208;BME280;3137;51.550;7.060;2023-02-22T08:15:31;100890.69;;;4.97;96.07
6208;BME280;3137;51.550;7.060;2023-02-22T08:17:59;100893.94;;;5.04;96.29
6208;BME280;3137;51.550;7.060;2023-02-22T08:20:27;100892.28;;;5.20;96.22
6208;BME280;3137;51.550;7.060;2023-02-22T08:22:54;100889.53;;;5.22;96.04
6208;BME280;3137;51.550;7.060;2023-02-22T08:25:25;100883.97;;;5.28;95.78
6208;BME280;3137;51.550;7.060;2023-02-22T08:27:56;100880.81;;;5.20;95.85
6208;BME280;3137;51.550;7.060;2023-02-22T08:30:24;100885.13;;;5.22;95.69
6208;BME280;3137;51.550;7.060;2023-02-22T08:32:50;100883.38;;;5.21;95.74
6208;BME280;3137;51.550;7.060;2023-02-22T08:35:18;100881.59;;;5.22;95.48
6208;BME280;3137;51.550;7.060;2023-02-22T08:37:47;100891.28;;;5.23;95.94
6208;BME280;3137;51.550;7.060;2023-02-22T08:40:16;100884.03;;;5.26;95.47
6208;BME280;3137;51.550;7.060;2023-02-22T08:42:43;100881.09;;;5.32;95.91
6208;BME280;3137;51.550;7.060;2023-02-22T08:45:10;100877.16;;;5.41;95.77
6208;BME280;3137;51.550;7.060;2023-02-22T08:47:39;100877.00;;;5.44;95.68
6208;BME280;3137;51.550;7.060;2023-02-22T08:50:06;100879.22;;;5.53;95.45
6208;BME280;3137;51.550;7.060;2023-02-22T08:52:33;100874.19;;;5.47;95.66
6208;BME280;3137;51.550;7.060;2023-02-22T08:55:00;100878.31;;;5.53;95.44
6208;BME280;3137;51.550;7.060;2023-02-22T08:57:26;100873.25;;;5.48;95.53
6208;BME280;3137;51.550;7.060;2023-02-22T08:59:53;100865.28;;;5.48;95.47
6208;BME280;3137;51.550;7.060;2023-02-22T09:02:20;100862.28;;;5.37;95.58
6208;BME280;3137;51.550;7.060;2023-02-22T09:04:48;100866.44;;;5.43;95.82
6208;BME280;3137;51.550;7.060;2023-02-22T09:07:14;100857.22;;;5.50;96.14
6208;BME280;3137;51.550;7.060;2023-02-22T09:09:44;100855.84;;;5.60;96.01
6208;BME280;3137;51.550;7.060;2023-02-22T09:12:10;100862.16;;;5.58;95.78
6208;BME280;3137;51.550;7.060;2023-02-22T09:14:37;100863.22;;;5.72;96.02
6208;BME280;3137;51.550;7.060;2023-02-22T09:17:03;100861.66;;;5.86;96.01
6208;BME280;3137;51.550;7.060;2023-02-22T09:19:31;100858.34;;;6.00;95.67
6208;BME280;3137;51.550;7.060;2023-02-22T09:21:58;100855.84;;;6.14;95.77
6208;BME280;3137;51.550;7.060;2023-02-22T09:24:27;100851.69;;;6.26;96.04
6208;BME280;3137;51.550;7.060;2023-02-22T09:26:54;100851.50;;;6.46;96.00
6208;BME280;3137;51.550;7.060;2023-02-22T09:29:22;100846.41;;;6.59;95.88
6208;BME280;3137;51.550;7.060;2023-02-22T09:31:51;100845.44;;;6.60;95.71
6208;BME280;3137;51.550;7.060;2023-02-22T09:34:19;100845.16;;;6.82;95.35
6208;BME280;3137;51.550;7.060;2023-02-22T09:36:46;100850.75;;;6.93;94.81
6208;BME280;3137;51.550;7.060;2023-02-22T09:39:15;100850.00;;;7.07;95.08
6208;BME280;3137;51.550;7.060;2023-02-22T09:42:02;100846.91;;;7.15;94.92
6208;BME280;3137;51.550;7.060;2023-02-22T09:44:46;100846.47;;;7.22;94.45
6208;BME280;3137;51.550;7.060;2023-02-22T09:47:18;100844.59;;;7.40;94.24
6208;BME280;3137;51.550;7.060;2023-02-22T09:50:04;100840.19;;;7.55;93.84
6208;BME280;3137;51.550;7.060;2023-02-22T09:55:51;100836.53;;;7.88;93.38
6208;BME280;3137;51.550;7.060;2023-02-22T09:58:24;100834.84;;;8.01;93.56
6208;BME280;3137;51.550;7.060;2023-02-22T10:00:57;100830.22;;;8.19;93.69
6208;BME280;3137;51.550;7.060;2023-02-22T10:03:34;100835.09;;;8.27;92.63
6208;BME280;3137;51.550;7.060;2023-02-22T10:06:05;100838.75;;;8.40;92.57
6208;BME280;3137;51.550;7.060;2023-02-22T10:08:36;100838.03;;;8.52;91.50
6208;BME280;3137;51.550;7.060;2023-02-22T10:13:50;100826.94;;;8.73;90.17
6208;BME280;3137;51.550;7.060;2023-02-22T10:16:33;100836.56;;;8.90;89.39
6208;BME280;3137;51.550;7.060;2023-02-22T10:19:25;100831.97;;;9.06;88.19
6208;BME280;3137;51.550;7.060;2023-02-22T10:27:26;100820.19;;;9.50;87.03
6208;BME280;3137;51.550;7.060;2023-02-22T10:30:06;100825.50;;;9.65;87.10
6208;BME280;3137;51.550;7.060;2023-02-22T10:32:53;100825.19;;;9.69;85.75
6208;BME280;3137;51.550;7.060;2023-02-22T10:35:26;100825.84;;;9.73;84.31
6208;BME280;3137;51.550;7.060;2023-02-22T10:38:05;100819.22;;;9.78;82.69
6208;BME280;3137;51.550;7.060;2023-02-22T10:40:37;100811.75;;;9.84;81.67
6208;BME280;3137;51.550;7.060;2023-02-22T10:43:05;100814.66;;;9.93;81.83
6208;BME280;3137;51.550;7.060;2023-02-22T10:45:34;100813.09;;;10.04;81.11
6208;BME280;3137;51.550;7.060;2023-02-22T10:48:07;100811.47;;;10.01;79.01
6208;BME280;3137;51.550;7.060;2023-02-22T10:50:39;100809.03;;;10.11;79.20
6208;BME280;3137;51.550;7.060;2023-02-22T10:53:08;100807.69;;;10.31;78.96
6208;BME280;3137;51.550;7.060;2023-02-22T10:55:35;100802.41;;;10.29;76.90
6208;BME280;3137;51.550;7.060;2023-02-22T10:58:22;100796.09;;;10.43;77.04
6208;BME280;3137;51.550;7.060;2023-02-22T11:00:49;100796.75;;;10.59;76.35
6208;BME280;3137;51.550;7.060;2023-02-22T11:03:21;100786.75;;;10.74;76.79
6208;BME280;3137;51.550;7.060;2023-02-22T11:05:49;100790.38;;;10.86;74.56
6208;BME280;3137;51.550;7.060;2023-02-22T11:10:42;100785.97;;;11.22;73.02
6208;BME280;3137;51.550;7.060;2023-02-22T11:15:53;100781.53;;;11.34;73.05
6208;BME280;3137;51.550;7.060;2023-02-22T11:18:32;100777.25;;;11.55;72.59
6208;BME280;3137;51.550;7.060;2023-02-22T11:21:07;100770.97;;;11.67;72.52
6208;BME280;3137;51.550;7.060;2023-02-22T11:23:36;100772.78;;;11.67;71.24
6208;BME280;3137;51.550;7.060;2023-02-22T11:26:10;100767.94;;;11.72;71.69
6208;BME280;3137;51.550;7.060;2023-02-22T11:28:43;100760.38;;;11.77;71.14
6208;BME280;3137;51.550;7.060;2023-02-22T11:33:56;100753.56;;;12.20;70.58
6208;BME280;3137;51.550;7.060;2023-02-22T11:36:41;100752.47;;;12.45;70.65
6208;BME280;3137;51.550;7.060;2023-02-22T11:39:28;100749.44;;;12.61;69.91
6208;BME280;3137;51.550;7.060;2023-02-22T11:42:19;100753.84;;;12.50;66.80
6208;BME280;3137;51.550;7.060;2023-02-22T11:44:48;100744.66;;;12.42;67.48
6208;BME280;3137;51.550;7.060;2023-02-22T11:47:23;100740.16;;;12.53;66.67
6208;BME280;3137;51.550;7.060;2023-02-22T11:49:49;100743.81;;;12.75;68.03
6208;BME280;3137;51.550;7.060;2023-02-22T11:52:23;100734.47;;;13.02;67.39
6208;BME280;3137;51.550;7.060;2023-02-22T11:55:06;100736.16;;;13.14;66.00
6208;BME280;3137;51.550;7.060;2023-02-22T12:03:33;100726.88;;;13.50;63.92
6208;BME280;3137;51.550;7.060;2023-02-22T12:08:57;100715.63;;;13.77;63.59
6208;BME280;3137;51.550;7.060;2023-02-22T12:14:42;100714.75;;;13.98;62.24
6208;BME280;3137;51.550;7.060;2023-02-22T12:17:24;100710.97;;;14.10;61.62
6208;BME280;3137;51.550;7.060;2023-02-22T12:20:03;100719.19;;;14.30;61.20
6208;BME280;3137;51.550;7.060;2023-02-22T12:22:40;100710.03;;;14.42;59.51
6208;BME280;3137;51.550;7.060;2023-02-22T12:25:20;100708.00;;;14.34;58.28
6208;BME280;3137;51.550;7.060;2023-02-22T12:27:52;100704.59;;;14.32;57.15
6208;BME280;3137;51.550;7.060;2023-02-22T12:30:25;100696.94;;;14.37;57.12
6208;BME280;3137;51.550;7.060;2023-02-22T12:32:57;100685.84;;;14.61;56.74
6208;BME280;3137;51.550;7.060;2023-02-22T12:35:32;100689.00;;;14.76;57.05
6208;BME280;3137;51.550;7.060;2023-02-22T12:40:55;100682.81;;;15.24;51.87
6208;BME280;3137;51.550;7.060;2023-02-22T12:43:32;100681.13;;;15.52;53.52
6208;BME280;3137;51.550;7.060;2023-02-22T12:46:20;100675.31;;;15.47;53.45
6208;BME280;3137;51.550;7.060;2023-02-22T12:48:59;100679.69;;;15.48;51.11
6208;BME280;3137;51.550;7.060;2023-02-22T12:51:44;100678.28;;;15.54;47.15
6208;BME280;3137;51.550;7.060;2023-02-22T12:54:25;100685.66;;;15.62;45.85
6208;BME280;3137;51.550;7.060;2023-02-22T12:57:05;100681.53;;;15.67;45.79
6208;BME280;3137;51.550;7.060;2023-02-22T12:59:52;100683.81;;;15.62;45.17
6208;BME280;3137;51.550;7.060;2023-02-22T13:02:42;100675.72;;;15.72;46.28
6208;BME280;3137;51.550;7.060;2023-02-22T13:05:15;100675.69;;;15.82;45.14
6208;BME280;3137;51.550;7.060;2023-02-22T13:13:27;100681.41;;;15.79;46.18
6208;BME280;3137;51.550;7.060;2023-02-22T13:16:06;100685.69;;;15.71;46.64
6208;BME280;3137;51.550;7.060;2023-02-22T13:18:50;100679.97;;;15.65;46.88
6208;BME280;3137;51.550;7.060;2023-02-22T13:24:03;100674.16;;;15.50;48.48
6208;BME280;3137;51.550;7.060;2023-02-22T13:37:15;100675.72;;;15.43;46.10
6208;BME280;3137;51.550;7.060;2023-02-22T13:40:08;100670.88;;;15.46;46.55
6208;BME280;3137;51.550;7.060;2023-02-22T13:48:42;100677.16;;;15.37;46.81
6208;BME280;3137;51.550;7.060;2023-02-22T13:51:12;100674.88;;;15.42;46.81
6208;BME280;3137;51.550;7.060;2023-02-22T13:53:48;100678.56;;;15.51;47.99
6208;BME280;3137;51.550;7.060;2023-02-22T13:56:18;100678.28;;;15.54;47.31
6208;BME280;3137;51.550;7.060;2023-02-22T13:58:47;100673.47;;;15.28;45.93
6208;BME280;3137;51.550;7.060;2023-02-22T14:04:19;100664.94;;;15.04;47.47
6208;BME280;3137;51.550;7.060;2023-02-22T14:06:46;100664.94;;;15.04;47.17
6208;BME280;3137;51.550;7.060;2023-02-22T14:09:15;100657.41;;;15.07;47.82
6208;BME280;3137;51.550;7.060;2023-02-22T14:11:48;100664.66;;;15.07;47.69
6208;BME280;3137;51.550;7.060;2023-02-22T14:14:19;100665.19;;;15.01;46.13
6208;BME280;3137;51.550;7.060;2023-02-22T14:19:59;100674.72;;;14.95;46.96
6208;BME280;3137;51.550;7.060;2023-02-22T14:22:29;100672.56;;;14.79;45.10
6208;BME280;3137;51.550;7.060;2023-02-22T14:24:56;100672.81;;;14.66;46.64
6208;BME280;3137;51.550;7.060;2023-02-22T14:27:23;100670.81;;;14.59;46.58
6208;BME280;3137;51.550;7.060;2023-02-22T14:29:55;100674.50;;;14.67;47.69
6208;BME280;3137;51.550;7.060;2023-02-22T14:32:30;100665.03;;;14.73;46.58
6208;BME280;3137;51.550;7.060;2023-02-22T14:34:59;100668.03;;;14.80;45.11
6208;BME280;3137;51.550;7.060;2023-02-22T14:37:38;100672.13;;;14.84;46.64
6208;BME280;3137;51.550;7.060;2023-02-22T14:40:25;100670.31;;;14.94;46.27
6208;BME280;3137;51.550;7.060;2023-02-22T14:43:18;100666.75;;;14.94;48.81
6208;BME280;3137;51.550;7.060;2023-02-22T14:45:52;100673.28;;;14.91;47.70
6208;BME280;3137;51.550;7.060;2023-02-22T14:48:27;100671.88;;;14.87;47.93
6208;BME280;3137;51.550;7.060;2023-02-22T14:51:01;100676.53;;;14.75;47.23
6208;BME280;3137;51.550;7.060;2023-02-22T14:53:49;100670.25;;;14.75;48.53
6208;BME280;3137;51.550;7.060;2023-02-22T14:56:33;100669.72;;;14.81;48.12
6208;BME280;3137;51.550;7.060;2023-02-22T15:01:46;100673.16;;;14.52;49.22
6208;BME280;3137;51.550;7.060;2023-02-22T15:04:31;100676.25;;;14.38;49.83
6208;BME280;3137;51.550;7.060;2023-02-22T15:06:59;100663.16;;;14.33;48.84
6208;BME280;3137;51.550;7.060;2023-02-22T15:09:28;100671.59;;;14.50;49.91
6208;BME280;3137;51.550;7.060;2023-02-22T15:14:34;100672.59;;;14.49;50.98